Time;durP1;ratioP1;P1;durP2;ratioP2;P2;SDS_P1;SDS_P2;PMS_P1;PMS_P2;Temp;Humidity;BMP_temperature;BMP_pressure;BME280_temperature;BME280_humidity;BME280_pressure;Samples;Min_cycle;Max_cycle;Signal;HPM_P1;HPM_P2
2023/05/27 00:01:32;;;;;;;1.83;0.70;;;13.40;61.90;;;;;;5035006;28;20109;-65
2023/05/27 00:03:57;;;;;;;1.95;1.00;;;13.40;62.10;;;;;;5046986;28;20056;-66
2023/05/27 00:06:23;;;;;;;1.60;0.77;;;13.40;62.20;;;;;;5033752;28;20067;-65
2023/05/27 00:08:49;;;;;;;2.13;0.90;;;13.40;62.30;;;;;;5043324;28;20083;-65
2023/05/27 00:11:14;;;;;;;0.88;0.60;;;13.30;62.30;;;;;;5036054;28;20032;-65
2023/05/27 00:13:40;;;;;;;2.70;0.98;;;13.30;62.50;;;;;;5034956;28;20025;-66
2023/05/27 00:16:06;;;;;;;2.05;1.10;;;13.30;62.60;;;;;;5016980;28;20030;-66
2023/05/27 00:18:32;;;;;;;3.22;1.13;;;13.30;62.60;;;;;;5032318;28;20026;-66
2023/05/27 00:20:59;;;;;;;3.00;1.42;;;13.20;62.70;;;;;;5029666;28;20041;-66
2023/05/27 00:23:25;;;;;;;3.60;0.95;;;13.20;62.90;;;;;;5035228;28;20045;-65
2023/05/27 00:25:50;;;;;;;6.90;1.88;;;13.20;63.00;;;;;;5031867;28;20040;-65
2023/05/27 00:28:16;;;;;;;0.70;0.70;;;13.10;63.00;;;;;;5038488;28;20498;-65
2023/05/27 00:30:42;;;;;;;4.13;1.20;;;13.10;63.20;;;;;;5032136;28;20021;-65
2023/05/27 00:33:07;;;;;;;2.47;0.95;;;13.10;63.30;;;;;;5038880;28;20369;-65
2023/05/27 00:35:33;;;;;;;2.63;1.00;;;13.10;63.50;;;;;;5016497;28;20197;-65
2023/05/27 00:37:59;;;;;;;1.17;0.90;;;13.10;63.40;;;;;;5034277;28;20025;-65
2023/05/27 00:40:28;;;;;;;3.25;1.77;;;13.10;63.50;;;;;;5034109;28;20048;-65
2023/05/27 00:42:53;;;;;;;4.88;1.52;;;13.00;63.60;;;;;;5037355;28;20511;-65
2023/05/27 00:45:19;;;;;;;6.13;1.80;;;13.00;63.80;;;;;;5034221;28;20083;-65
2023/05/27 00:47:45;;;;;;;5.55;1.17;;;13.00;63.70;;;;;;5026951;28;20477;-65
2023/05/27 00:50:11;;;;;;;2.67;1.02;;;13.00;63.80;;;;;;5034475;28;20376;-65
2023/05/27 00:52:37;;;;;;;1.73;0.75;;;13.00;64.00;;;;;;5033505;28;20028;-66
2023/05/27 00:55:03;;;;;;;3.47;1.33;;;12.90;64.10;;;;;;5032417;28;20037;-65
2023/05/27 00:57:28;;;;;;;3.63;1.33;;;12.90;64.30;;;;;;5035148;28;20496;-65
2023/05/27 00:59:54;;;;;;;1.20;0.70;;;12.80;64.30;;;;;;5033144;28;20093;-66
2023/05/27 01:02:20;;;;;;;3.83;1.20;;;12.80;64.40;;;;;;5032150;28;20033;-67
2023/05/27 01:04:46;;;;;;;2.53;0.93;;;12.80;65.10;;;;;;5015182;28;20062;-67
2023/05/27 01:07:46;;;;;;;2.47;0.90;;;12.80;64.70;;;;;;5029377;28;20029;-67
2023/05/27 01:10:40;;;;;;;4.15;1.15;;;12.80;64.70;;;;;;5031044;28;20033;-68
2023/05/27 01:13:16;;;;;;;2.17;1.58;;;12.80;64.80;;;;;;5030228;28;20108;-68
2023/05/27 01:15:42;;;;;;;2.50;1.58;;;12.70;64.90;;;;;;5029132;28;20021;-68
2023/05/27 01:18:12;;;;;;;2.22;1.27;;;12.70;65.00;;;;;;5038131;28;20029;-65
2023/05/27 01:20:40;;;;;;;3.95;1.45;;;12.70;65.00;;;;;;5038625;28;20024;-66
2023/05/27 01:23:08;;;;;;;2.95;1.40;;;12.60;65.20;;;;;;5042196;28;20096;-66
2023/05/27 01:25:33;;;;;;;1.73;0.77;;;12.60;65.40;;;;;;5029874;28;20048;-66
2023/05/27 01:27:59;;;;;;;1.67;0.80;;;12.60;65.40;;;;;;5036678;28;20077;-66
2023/05/27 01:30:25;;;;;;;2.60;1.00;;;12.60;65.40;;;;;;5039659;28;20029;-66
2023/05/27 01:33:14;;;;;;;2.00;1.05;;;12.60;65.50;;;;;;5034124;28;20025;-66
2023/05/27 01:35:48;;;;;;;2.83;0.95;;;12.50;65.60;;;;;;5029409;28;20538;-66
2023/05/27 01:38:17;;;;;;;4.05;1.25;;;12.50;65.90;;;;;;5031874;28;20037;-67
2023/05/27 01:40:44;;;;;;;0.77;0.75;;;12.40;66.00;;;;;;5023594;28;20036;-66
2023/05/27 01:43:13;;;;;;;3.75;1.17;;;12.40;66.10;;;;;;5033701;28;20033;-66
2023/05/27 01:45:39;;;;;;;2.50;1.38;;;12.40;66.20;;;;;;5026854;28;20083;-66
2023/05/27 01:48:05;;;;;;;3.22;0.75;;;12.40;66.20;;;;;;5027184;28;20480;-66
2023/05/27 01:50:31;;;;;;;3.45;1.77;;;12.40;66.20;;;;;;5030902;28;20038;-65
2023/05/27 01:52:57;;;;;;;3.08;0.82;;;12.40;66.20;;;;;;5032286;28;20119;-65
2023/05/27 01:55:23;;;;;;;2.25;0.70;;;12.40;66.50;;;;;;5036145;28;20421;-65
2023/05/27 01:57:49;;;;;;;5.22;1.70;;;12.40;66.60;;;;;;5044136;28;20107;-65
2023/05/27 02:00:15;;;;;;;2.33;1.52;;;12.40;66.70;;;;;;5028852;28;20045;-65
2023/05/27 02:02:41;;;;;;;1.25;0.98;;;12.40;66.70;;;;;;5030344;28;20030;-65
2023/05/27 02:05:07;;;;;;;5.20;1.23;;;12.30;66.70;;;;;;5025625;28;20041;-65
2023/05/27 02:07:33;;;;;;;2.05;0.80;;;12.30;66.90;;;;;;5029718;28;20057;-65
2023/05/27 02:09:58;;;;;;;2.03;0.98;;;12.30;66.90;;;;;;5028807;28;20033;-65
2023/05/27 02:12:24;;;;;;;1.38;1.08;;;12.30;67.00;;;;;;5029130;28;20033;-66
2023/05/27 02:14:51;;;;;;;3.63;2.03;;;12.20;67.00;;;;;;5030332;28;20480;-65
2023/05/27 02:17:17;;;;;;;4.65;1.65;;;12.30;67.20;;;;;;5028157;28;20057;-65
2023/05/27 02:19:43;;;;;;;2.30;1.00;;;12.20;67.40;;;;;;5026271;28;20025;-65
2023/05/27 02:22:08;;;;;;;2.35;1.45;;;12.20;67.50;;;;;;5025402;28;20503;-65
2023/05/27 02:24:34;;;;;;;5.78;1.40;;;12.20;67.50;;;;;;5020171;28;20389;-65
2023/05/27 02:27:01;;;;;;;1.42;1.05;;;12.20;67.60;;;;;;5022886;28;20057;-65
2023/05/27 02:29:26;;;;;;;7.72;1.95;;;12.20;67.70;;;;;;5029031;28;20059;-65
2023/05/27 02:31:52;;;;;;;4.18;1.65;;;12.10;67.70;;;;;;5020942;28;20034;-65
2023/05/27 02:34:18;;;;;;;3.72;1.27;;;12.10;67.70;;;;;;5025730;28;20032;-65
2023/05/27 02:36:43;;;;;;;4.07;1.33;;;12.10;67.80;;;;;;5029056;28;20038;-65
2023/05/27 02:39:10;;;;;;;2.40;1.45;;;12.10;67.90;;;;;;5021935;28;20044;-65
2023/05/27 02:41:36;;;;;;;3.13;1.65;;;12.00;67.90;;;;;;5018881;28;20061;-65
2023/05/27 02:44:02;;;;;;;2.63;1.10;;;12.00;67.90;;;;;;5020178;28;20126;-63
2023/05/27 02:46:28;;;;;;;1.88;1.23;;;12.00;68.10;;;;;;5019140;28;20419;-65
2023/05/27 02:48:53;;;;;;;3.28;1.63;;;11.90;68.20;;;;;;5028668;28;20033;-65
2023/05/27 02:51:20;;;;;;;3.05;1.45;;;11.90;68.30;;;;;;5031710;28;20032;-65
2023/05/27 02:53:46;;;;;;;2.17;0.90;;;11.80;68.30;;;;;;5042246;28;20017;-64
2023/05/27 02:56:12;;;;;;;4.80;1.30;;;11.80;68.40;;;;;;5041967;28;20029;-65
2023/05/27 02:58:37;;;;;;;2.63;1.15;;;11.80;68.30;;;;;;5032129;28;20540;-65
2023/05/27 03:01:03;;;;;;;1.92;0.80;;;11.80;68.40;;;;;;5031677;28;20037;-65
2023/05/27 03:03:29;;;;;;;1.10;1.00;;;11.70;68.30;;;;;;5024458;28;20388;-65
2023/05/27 03:05:54;;;;;;;4.10;0.82;;;11.70;68.40;;;;;;5031176;28;20465;-65
2023/05/27 03:08:20;;;;;;;3.15;1.08;;;11.70;68.70;;;;;;5029279;28;20037;-65
2023/05/27 03:10:46;;;;;;;5.47;1.63;;;11.60;68.80;;;;;;5032691;28;20036;-65
2023/05/27 03:13:13;;;;;;;3.95;1.65;;;11.60;68.80;;;;;;5046986;28;20032;-64
2023/05/27 03:15:39;;;;;;;2.80;1.85;;;11.60;69.00;;;;;;5036244;28;20071;-64
2023/05/27 03:18:05;;;;;;;4.28;1.67;;;11.60;69.00;;;;;;5044417;28;20476;-64
2023/05/27 03:20:30;;;;;;;1.17;1.02;;;11.50;69.10;;;;;;5032948;28;20542;-65
2023/05/27 03:22:56;;;;;;;5.50;1.30;;;11.50;69.30;;;;;;5035722;28;20053;-65
2023/05/27 03:25:22;;;;;;;2.03;1.02;;;11.50;69.40;;;;;;5036081;28;20032;-64
2023/05/27 03:27:48;;;;;;;3.50;1.63;;;11.50;69.60;;;;;;5029710;28;20080;-64
2023/05/27 03:30:14;;;;;;;5.32;1.05;;;11.50;69.60;;;;;;5025172;28;20453;-64
2023/05/27 03:32:40;;;;;;;2.38;1.15;;;11.60;69.60;;;;;;5033164;28;20029;-64
2023/05/27 03:35:06;;;;;;;3.30;1.60;;;11.50;69.40;;;;;;5035100;28;20018;-64
2023/05/27 03:37:32;;;;;;;1.38;0.93;;;11.50;69.60;;;;;;5035886;28;20477;-64
2023/05/27 03:39:57;;;;;;;0.77;0.70;;;11.60;69.50;;;;;;5029973;28;20051;-64
2023/05/27 03:42:23;;;;;;;1.45;0.88;;;11.50;69.50;;;;;;5034606;28;20087;-65
2023/05/27 03:44:49;;;;;;;1.33;0.73;;;11.50;69.50;;;;;;5033191;28;20040;-65
2023/05/27 03:47:17;;;;;;;2.88;1.30;;;11.50;69.70;;;;;;5026377;28;20041;-64
2023/05/27 03:49:43;;;;;;;7.65;1.42;;;11.50;69.70;;;;;;5039019;28;20033;-64
2023/05/27 03:52:09;;;;;;;2.05;0.82;;;11.50;69.90;;;;;;5037969;28;20044;-66
2023/05/27 03:54:35;;;;;;;6.53;1.45;;;11.50;69.90;;;;;;5041469;28;20028;-64
2023/05/27 03:57:01;;;;;;;2.20;0.85;;;11.50;70.00;;;;;;5037546;28;20388;-65
2023/05/27 03:59:26;;;;;;;1.92;1.20;;;11.60;69.80;;;;;;5038954;28;20033;-65
2023/05/27 04:01:52;;;;;;;5.45;1.05;;;11.60;69.80;;;;;;5030907;28;20408;-65
2023/05/27 04:04:18;;;;;;;1.70;1.30;;;11.60;69.90;;;;;;5039732;28;20025;-66
2023/05/27 04:06:44;;;;;;;1.40;1.20;;;11.60;70.00;;;;;;5027529;28;20388;-65
2023/05/27 04:09:09;;;;;;;1.50;1.15;;;11.60;69.80;;;;;;5018513;28;20048;-66
2023/05/27 04:11:35;;;;;;;1.00;0.80;;;11.60;69.90;;;;;;5029763;28;20037;-66
2023/05/27 04:14:01;;;;;;;2.30;1.15;;;11.50;70.00;;;;;;5033048;28;20079;-66
2023/05/27 04:16:30;;;;;;;1.13;0.90;;;11.50;70.20;;;;;;5033270;28;20025;-66
2023/05/27 04:18:56;;;;;;;6.07;1.52;;;11.60;70.20;;;;;;5030467;28;20033;-66
2023/05/27 04:21:22;;;;;;;1.65;1.50;;;11.60;70.10;;;;;;5035391;28;20566;-65
2023/05/27 04:23:48;;;;;;;3.38;1.30;;;11.60;70.20;;;;;;5027422;28;20029;-66
2023/05/27 04:26:20;;;;;;;4.38;1.75;;;11.60;70.10;;;;;;5031825;28;20106;-67
2023/05/27 04:28:46;;;;;;;2.20;1.00;;;11.70;70.30;;;;;;5014840;28;20113;-66
2023/05/27 04:31:13;;;;;;;2.47;1.50;;;11.70;70.30;;;;;;5028926;28;20451;-66
2023/05/27 04:33:39;;;;;;;3.45;1.40;;;11.70;70.40;;;;;;5029289;28;20034;-66
2023/05/27 04:36:09;;;;;;;2.78;1.17;;;11.80;70.40;;;;;;5030575;28;20472;-66
2023/05/27 04:38:34;;;;;;;0.85;0.73;;;11.80;70.20;;;;;;5029440;28;20040;-66
2023/05/27 04:41:01;;;;;;;8.55;1.40;;;11.90;70.20;;;;;;5028410;28;20033;-66
2023/05/27 04:43:27;;;;;;;4.88;1.60;;;11.90;70.10;;;;;;5028262;28;20439;-66
2023/05/27 04:45:53;;;;;;;2.53;0.80;;;11.90;70.20;;;;;;5034045;28;20348;-66
2023/05/27 04:48:19;;;;;;;4.32;1.30;;;11.90;70.10;;;;;;5017331;28;20068;-66
2023/05/27 04:50:45;;;;;;;3.63;1.48;;;11.90;70.20;;;;;;5034393;28;20033;-66
2023/05/27 04:53:11;;;;;;;5.68;1.30;;;11.90;70.20;;;;;;5035087;28;20480;-66
2023/05/27 04:55:38;;;;;;;9.90;1.33;;;11.90;70.20;;;;;;5032545;28;20043;-66
2023/05/27 04:58:05;;;;;;;3.10;1.00;;;12.00;70.20;;;;;;5026934;28;20392;-66
2023/05/27 05:00:49;;;;;;;3.25;0.90;;;12.00;70.20;;;;;;5037772;28;20040;-66
2023/05/27 05:03:26;;;;;;;2.13;1.25;;;12.00;70.30;;;;;;5029553;28;20067;-66
2023/05/27 05:05:52;;;;;;;4.05;1.27;;;12.10;70.30;;;;;;5036097;28;20036;-65
2023/05/27 05:08:19;;;;;;;4.75;1.35;;;12.10;70.30;;;;;;5032118;28;20072;-65
2023/05/27 05:10:49;;;;;;;1.40;1.10;;;12.20;70.10;;;;;;5027681;28;20124;-65
2023/05/27 05:13:15;;;;;;;4.82;1.20;;;12.20;70.10;;;;;;5031994;28;20136;-65
2023/05/27 05:15:43;;;;;;;4.07;1.20;;;12.30;70.30;;;;;;5023497;28;20484;-66
2023/05/27 05:18:10;;;;;;;4.68;1.20;;;12.30;70.20;;;;;;5027097;28;20034;-66
2023/05/27 05:20:36;;;;;;;6.97;1.83;;;12.30;70.20;;;;;;5027599;28;20487;-65
2023/05/27 05:23:02;;;;;;;1.35;1.00;;;12.40;70.40;;;;;;5021423;28;20046;-65
2023/05/27 05:25:30;;;;;;;2.22;0.90;;;12.40;70.40;;;;;;5030279;28;20510;-66
2023/05/27 05:27:56;;;;;;;2.10;1.30;;;12.50;70.30;;;;;;5030681;28;20083;-66
2023/05/27 05:30:22;;;;;;;4.00;1.25;;;12.50;70.30;;;;;;5030314;28;20563;-65
2023/05/27 05:32:47;;;;;;;2.95;1.55;;;12.60;70.30;;;;;;5030406;28;20135;-66
2023/05/27 05:35:13;;;;;;;12.13;1.45;;;12.70;70.40;;;;;;5030643;28;20104;-66
2023/05/27 05:37:39;;;;;;;2.13;0.90;;;12.70;70.40;;;;;;5031631;28;20041;-66
2023/05/27 05:40:05;;;;;;;10.70;2.30;;;12.80;70.20;;;;;;5025534;28;20437;-66
2023/05/27 05:42:31;;;;;;;1.23;1.13;;;12.80;70.10;;;;;;5040913;28;20040;-66
2023/05/27 05:44:57;;;;;;;3.60;1.75;;;12.80;70.10;;;;;;5049859;28;20025;-66
2023/05/27 05:47:22;;;;;;;6.60;2.17;;;12.90;70.20;;;;;;5034709;28;20045;-66
2023/05/27 05:49:48;;;;;;;8.32;1.15;;;12.90;70.30;;;;;;5043415;28;20017;-66
2023/05/27 05:52:14;;;;;;;2.35;1.63;;;13.00;70.40;;;;;;5029340;28;20079;-66
2023/05/27 05:54:39;;;;;;;3.00;1.00;;;13.00;70.40;;;;;;5038450;28;20056;-66
2023/05/27 05:57:05;;;;;;;3.38;1.42;;;13.10;70.30;;;;;;5033620;28;20566;-66
2023/05/27 05:59:31;;;;;;;2.63;0.93;;;13.10;70.20;;;;;;5030537;28;20043;-66
2023/05/27 06:01:57;;;;;;;3.72;1.73;;;13.20;70.10;;;;;;5029980;28;20428;-66
2023/05/27 06:04:23;;;;;;;7.68;1.17;;;13.30;70.00;;;;;;5045647;28;20130;-66
2023/05/27 06:06:48;;;;;;;1.83;1.20;;;13.40;70.00;;;;;;5040781;28;20022;-66
2023/05/27 06:09:14;;;;;;;4.13;1.75;;;13.50;70.00;;;;;;5043828;28;20029;-66
2023/05/27 06:11:40;;;;;;;9.75;1.90;;;13.50;69.90;;;;;;5033932;28;20057;-66
2023/05/27 06:14:07;;;;;;;4.28;1.42;;;13.60;69.70;;;;;;5031593;28;20036;-66
2023/05/27 06:16:35;;;;;;;8.80;0.93;;;13.60;69.70;;;;;;5028799;28;20060;-66
2023/05/27 06:19:01;;;;;;;3.45;1.38;;;13.60;69.60;;;;;;5031640;28;20116;-66
2023/05/27 06:21:27;;;;;;;3.78;1.63;;;13.70;69.60;;;;;;5039520;28;20080;-66
2023/05/27 06:23:52;;;;;;;4.32;1.20;;;13.80;69.70;;;;;;5037095;28;20037;-67
2023/05/27 06:26:19;;;;;;;2.40;1.52;;;13.90;69.50;;;;;;5029632;28;20033;-66
2023/05/27 06:28:44;;;;;;;2.97;1.10;;;14.00;69.50;;;;;;5029237;28;20064;-66
2023/05/27 06:31:10;;;;;;;6.82;1.33;;;14.10;69.30;;;;;;5011386;28;20057;-67
2023/05/27 06:33:36;;;;;;;2.15;1.33;;;14.10;69.10;;;;;;5026941;28;20029;-67
2023/05/27 06:36:01;;;;;;;1.48;1.30;;;14.20;69.10;;;;;;5028360;28;20108;-66
2023/05/27 06:38:27;;;;;;;4.50;1.52;;;14.20;68.90;;;;;;5028464;28;20064;-67
2023/05/27 06:40:53;;;;;;;2.97;1.52;;;14.30;68.90;;;;;;5013333;28;20037;-66
2023/05/27 06:43:18;;;;;;;3.22;1.33;;;14.30;68.70;;;;;;5032365;28;20013;-66
2023/05/27 06:45:44;;;;;;;5.20;1.17;;;14.40;69.30;;;;;;5035035;28;20053;-66
2023/05/27 06:48:10;;;;;;;4.03;1.42;;;14.50;68.60;;;;;;5028002;28;20060;-66
2023/05/27 06:50:35;;;;;;;5.78;1.13;;;14.60;68.50;;;;;;5019751;28;20056;-66
2023/05/27 06:53:01;;;;;;;3.78;1.55;;;14.60;68.30;;;;;;5029881;28;20021;-66
2023/05/27 06:55:27;;;;;;;2.35;1.35;;;14.70;68.20;;;;;;5023869;28;20060;-66
2023/05/27 06:57:52;;;;;;;2.10;1.40;;;14.80;68.00;;;;;;5023453;28;20037;-66
2023/05/27 07:00:18;;;;;;;2.25;1.27;;;14.80;68.00;;;;;;5026006;28;20069;-66
2023/05/27 07:02:44;;;;;;;1.23;0.90;;;14.80;67.80;;;;;;5027981;28;20489;-67
2023/05/27 07:05:10;;;;;;;2.10;0.93;;;14.90;67.70;;;;;;5033595;28;20101;-67
2023/05/27 07:07:36;;;;;;;5.43;0.90;;;14.90;67.70;;;;;;5031676;28;20091;-66
2023/05/27 07:10:01;;;;;;;7.43;1.85;;;15.00;67.60;;;;;;5030760;28;20024;-66
2023/05/27 07:12:27;;;;;;;1.23;1.10;;;15.10;67.40;;;;;;5032637;28;20025;-66
2023/05/27 07:14:53;;;;;;;2.00;0.93;;;15.10;67.20;;;;;;5029216;28;20109;-66
2023/05/27 07:17:18;;;;;;;3.97;1.52;;;15.30;67.10;;;;;;5032420;28;20033;-66
2023/05/27 07:19:44;;;;;;;1.52;1.00;;;15.40;66.80;;;;;;5032230;28;20033;-66
2023/05/27 07:22:10;;;;;;;2.45;0.85;;;15.50;66.60;;;;;;5032659;28;20045;-67
2023/05/27 07:24:35;;;;;;;4.57;1.52;;;15.60;66.50;;;;;;5030861;28;20100;-67
2023/05/27 07:27:01;;;;;;;2.95;1.35;;;15.70;66.30;;;;;;5029002;28;20045;-66
2023/05/27 07:29:27;;;;;;;2.13;0.55;;;15.80;66.10;;;;;;5011519;28;20041;-66
2023/05/27 07:31:53;;;;;;;1.67;1.33;;;15.90;66.00;;;;;;5028550;28;20074;-66
2023/05/27 07:34:20;;;;;;;2.45;0.90;;;16.00;65.80;;;;;;5027967;28;20021;-66
2023/05/27 07:36:46;;;;;;;0.55;0.55;;;16.10;65.60;;;;;;5022752;28;20029;-65
2023/05/27 07:39:11;;;;;;;3.50;1.42;;;16.10;65.60;;;;;;5031740;28;20492;-65
2023/05/27 07:41:38;;;;;;;3.40;1.33;;;16.20;65.60;;;;;;5030612;28;20022;-66
2023/05/27 07:44:04;;;;;;;3.10;0.93;;;16.30;65.40;;;;;;5029903;28;20037;-64
2023/05/27 07:46:30;;;;;;;3.92;1.20;;;16.40;65.30;;;;;;5026822;28;20030;-65
2023/05/27 07:48:55;;;;;;;2.85;1.35;;;16.40;65.10;;;;;;5025963;28;20025;-65
2023/05/27 07:51:21;;;;;;;2.40;1.45;;;16.50;64.90;;;;;;5022982;28;20479;-65
2023/05/27 07:53:48;;;;;;;2.28;1.17;;;16.50;64.60;;;;;;5035905;28;20528;-65
2023/05/27 07:56:13;;;;;;;3.95;1.27;;;16.60;64.60;;;;;;5038022;28;20052;-65
2023/05/27 07:58:39;;;;;;;4.63;1.05;;;16.70;64.50;;;;;;5033934;28;20033;-67
2023/05/27 08:01:05;;;;;;;1.55;0.82;;;16.80;64.40;;;;;;5033998;28;20025;-65
2023/05/27 08:03:31;;;;;;;1.75;1.00;;;16.90;64.30;;;;;;5037212;28;20056;-65
2023/05/27 08:05:56;;;;;;;2.92;0.98;;;17.00;63.90;;;;;;5023648;28;20087;-73
2023/05/27 08:08:22;;;;;;;7.13;1.60;;;17.10;63.70;;;;;;5030342;28;20032;-66
2023/05/27 08:10:47;;;;;;;3.38;1.45;;;17.10;63.50;;;;;;5030971;28;20034;-65
2023/05/27 08:13:13;;;;;;;2.78;1.30;;;17.20;63.40;;;;;;5031950;28;20037;-66
2023/05/27 08:15:39;;;;;;;4.25;1.27;;;17.20;63.30;;;;;;5043519;28;20060;-64
2023/05/27 08:18:05;;;;;;;3.88;1.50;;;17.20;63.10;;;;;;5030696;28;20115;-64
2023/05/27 08:20:30;;;;;;;3.95;1.20;;;17.30;63.20;;;;;;5017141;28;20034;-64
2023/05/27 08:22:56;;;;;;;4.00;1.15;;;17.40;62.90;;;;;;5028408;28;20119;-64
2023/05/27 08:25:22;;;;;;;10.18;1.25;;;17.50;62.80;;;;;;5031065;28;20519;-65
2023/05/27 08:27:53;;;;;;;3.60;1.33;;;17.60;62.70;;;;;;5036992;28;20052;-65
2023/05/27 08:30:19;;;;;;;2.15;1.27;;;17.70;62.50;;;;;;5032559;28;20053;-65
2023/05/27 08:32:45;;;;;;;3.67;1.13;;;17.80;62.20;;;;;;5029184;28;20061;-66
2023/05/27 08:35:12;;;;;;;7.10;1.63;;;17.90;62.10;;;;;;5028662;28;20053;-66
2023/05/27 08:37:38;;;;;;;4.32;1.20;;;18.00;62.00;;;;;;5025131;28;20026;-66
2023/05/27 08:40:07;;;;;;;7.72;1.38;;;18.10;61.90;;;;;;5027754;28;20606;-66
2023/05/27 08:42:33;;;;;;;5.65;1.45;;;18.10;61.70;;;;;;5032001;28;20453;-65
2023/05/27 08:45:00;;;;;;;2.88;1.23;;;18.20;61.50;;;;;;5030053;28;20026;-65
2023/05/27 08:47:31;;;;;;;6.60;2.15;;;18.20;61.40;;;;;;5027068;28;20089;-65
2023/05/27 08:50:00;;;;;;;5.55;1.23;;;18.30;61.30;;;;;;5031042;28;20021;-65
2023/05/27 08:52:29;;;;;;;2.80;1.45;;;18.40;61.10;;;;;;5033072;28;20392;-67
2023/05/27 08:54:57;;;;;;;5.32;1.10;;;18.50;60.90;;;;;;5027526;28;20022;-66
2023/05/27 08:57:30;;;;;;;4.68;2.28;;;18.60;60.90;;;;;;5029513;28;20051;-66
2023/05/27 08:59:56;;;;;;;4.35;1.42;;;18.60;61.20;;;;;;5025023;28;20021;-67
2023/05/27 09:02:23;;;;;;;3.88;1.98;;;18.70;60.50;;;;;;5017898;28;20020;-66
2023/05/27 09:04:49;;;;;;;6.32;1.42;;;18.80;60.20;;;;;;5033670;28;20435;-67
2023/05/27 09:07:15;;;;;;;2.03;1.10;;;18.80;60.10;;;;;;5040197;28;20100;-66
2023/05/27 09:09:42;;;;;;;0.95;0.80;;;18.80;60.10;;;;;;5030802;28;20033;-66
2023/05/27 09:12:10;;;;;;;2.30;1.30;;;18.90;60.00;;;;;;5033902;28;20024;-66
2023/05/27 09:14:38;;;;;;;5.15;1.13;;;19.10;59.90;;;;;;5023805;28;20049;-66
2023/05/27 09:17:08;;;;;;;1.25;0.82;;;19.20;59.60;;;;;;5036463;28;20090;-66
2023/05/27 09:19:34;;;;;;;2.03;0.90;;;19.30;59.40;;;;;;5031546;28;20120;-66
2023/05/27 09:22:00;;;;;;;5.57;1.25;;;19.40;59.20;;;;;;5032409;28;20096;-67
2023/05/27 09:24:26;;;;;;;1.90;1.10;;;19.50;59.00;;;;;;5034663;28;20033;-66
2023/05/27 09:26:54;;;;;;;2.58;1.65;;;19.60;58.40;;;;;;5029058;28;20504;-66
2023/05/27 09:29:22;;;;;;;1.77;1.20;;;19.70;58.40;;;;;;5025054;28;20029;-67
2023/05/27 09:31:48;;;;;;;3.58;1.40;;;19.70;58.30;;;;;;5027478;28;20036;-66
2023/05/27 09:34:15;;;;;;;4.43;1.17;;;19.80;58.20;;;;;;5026349;28;20469;-66
2023/05/27 09:36:49;;;;;;;3.33;1.58;;;19.90;57.90;;;;;;5024492;28;20025;-67
2023/05/27 09:39:17;;;;;;;3.33;1.27;;;20.00;58.00;;;;;;5019081;28;20026;-66
2023/05/27 09:41:43;;;;;;;3.35;1.10;;;20.10;57.70;;;;;;5028626;28;20034;-67
2023/05/27 09:44:09;;;;;;;1.58;1.08;;;20.20;57.50;;;;;;5026660;28;20026;-68
2023/05/27 09:46:36;;;;;;;2.08;1.80;;;20.20;57.50;;;;;;5025430;28;20384;-67
2023/05/27 09:49:05;;;;;;;3.40;1.80;;;20.40;57.40;;;;;;5026872;28;20060;-67
2023/05/27 09:51:32;;;;;;;4.10;1.77;;;20.50;57.20;;;;;;5023276;28;20028;-67
2023/05/27 09:53:58;;;;;;;3.90;1.27;;;20.60;57.00;;;;;;5028975;28;20537;-66
2023/05/27 09:56:28;;;;;;;1.30;0.82;;;20.80;56.80;;;;;;5028731;28;20060;-67
2023/05/27 09:58:58;;;;;;;4.88;1.00;;;20.90;56.50;;;;;;5025829;28;20014;-66
2023/05/27 10:01:29;;;;;;;1.48;0.98;;;21.00;56.30;;;;;;5025415;28;20455;-66
2023/05/27 10:03:58;;;;;;;2.75;1.38;;;21.10;56.20;;;;;;5029500;28;20454;-67
2023/05/27 10:06:25;;;;;;;5.50;1.40;;;21.20;55.80;;;;;;5020266;28;20065;-66
2023/05/27 10:08:58;;;;;;;6.70;1.55;;;21.20;55.30;;;;;;5028679;28;20061;-66
2023/05/27 10:11:26;;;;;;;2.90;1.30;;;21.30;55.10;;;;;;5029394;28;20427;-66
2023/05/27 10:13:52;;;;;;;2.70;1.00;;;21.40;55.20;;;;;;5030121;28;20771;-66
2023/05/27 10:16:22;;;;;;;1.08;0.90;;;21.50;55.00;;;;;;5025667;28;20026;-66
2023/05/27 10:18:52;;;;;;;5.80;1.50;;;21.60;54.50;;;;;;5029283;28;20029;-66
2023/05/27 10:21:20;;;;;;;1.65;1.10;;;21.60;54.10;;;;;;5024171;28;20029;-66
2023/05/27 10:23:56;;;;;;;5.35;1.70;;;21.70;54.00;;;;;;5021873;28;20080;-66
2023/05/27 10:26:37;;;;;;;2.97;1.55;;;21.80;54.00;;;;;;5025167;28;20112;-66
2023/05/27 10:29:11;;;;;;;2.10;1.13;;;21.90;53.70;;;;;;5025333;28;20128;-66
2023/05/27 10:31:45;;;;;;;2.50;1.15;;;22.10;53.40;;;;;;5025769;28;20060;-66
2023/05/27 10:34:11;;;;;;;4.18;1.17;;;22.30;52.70;;;;;;5020593;28;20149;-66
2023/05/27 10:36:38;;;;;;;2.10;0.80;;;22.30;52.30;;;;;;5024933;28;20056;-67
2023/05/27 10:39:13;;;;;;;2.40;0.85;;;22.30;52.40;;;;;;5027658;28;20061;-67
2023/05/27 10:41:43;;;;;;;0.80;0.70;;;22.50;52.20;;;;;;5033273;28;20033;-67
2023/05/27 10:44:10;;;;;;;3.67;1.08;;;22.60;51.90;;;;;;5027303;28;20130;-67
2023/05/27 10:46:43;;;;;;;4.22;1.45;;;22.60;51.80;;;;;;5026676;28;20443;-68
2023/05/27 10:49:22;;;;;;;5.00;1.55;;;22.80;50.90;;;;;;5028779;28;20031;-67
2023/05/27 10:51:48;;;;;;;3.03;1.15;;;22.80;50.20;;;;;;5026681;28;20025;-67
2023/05/27 10:54:16;;;;;;;3.88;1.42;;;22.90;50.20;;;;;;5030702;28;20022;-67
2023/05/27 10:56:50;;;;;;;3.45;1.35;;;22.90;50.40;;;;;;5032276;28;20029;-66
2023/05/27 10:59:23;;;;;;;5.13;1.13;;;22.90;50.40;;;;;;5031189;28;20026;-67
2023/05/27 11:01:55;;;;;;;4.78;1.08;;;22.90;50.30;;;;;;5027035;28;20091;-66
2023/05/27 11:04:21;;;;;;;3.38;1.48;;;23.10;50.50;;;;;;5023005;28;20036;-66
2023/05/27 11:07:00;;;;;;;2.08;1.42;;;23.10;49.60;;;;;;5014641;28;20041;-67
2023/05/27 11:09:26;;;;;;;3.13;1.25;;;23.30;49.80;;;;;;5019401;28;20548;-66
2023/05/27 11:11:52;;;;;;;2.13;0.82;;;23.40;49.80;;;;;;5029303;28;20502;-68
2023/05/27 11:14:20;;;;;;;2.20;1.25;;;23.50;49.70;;;;;;5038717;28;20453;-66
2023/05/27 11:16:53;;;;;;;2.05;1.23;;;23.60;49.30;;;;;;5032994;28;20277;-66
2023/05/27 11:19:20;;;;;;;5.10;1.20;;;23.60;48.60;;;;;;5034257;28;20033;-66
2023/05/27 11:21:48;;;;;;;3.05;1.00;;;23.70;48.60;;;;;;5029779;28;20065;-66
2023/05/27 11:24:20;;;;;;;2.03;1.20;;;23.70;48.70;;;;;;5036365;28;20111;-66
2023/05/27 11:26:46;;;;;;;;;;;23.90;48.30;;;;;;5042011;28;20029;-67
2023/05/27 11:29:13;;;;;;;3.42;0.95;;;24.00;47.50;;;;;;5027677;28;19996;-67
2023/05/27 11:31:40;;;;;;;2.65;1.00;;;24.00;47.70;;;;;;5030848;28;20053;-67
2023/05/27 11:34:16;;;;;;;4.40;0.90;;;24.20;46.60;;;;;;5028242;28;20071;-67
2023/05/27 11:36:45;;;;;;;2.13;1.17;;;24.30;46.80;;;;;;5023617;28;20036;-69
2023/05/27 11:39:13;;;;;;;2.95;2.00;;;24.50;47.00;;;;;;5028440;28;20034;-67
2023/05/27 11:41:57;;;;;;;2.45;1.20;;;24.70;46.00;;;;;;5023478;28;20119;-67
2023/05/27 11:44:24;;;;;;;2.13;1.23;;;24.70;45.70;;;;;;5034894;28;20471;-67
2023/05/27 11:46:52;;;;;;;4.40;1.10;;;24.70;45.30;;;;;;5030254;28;20029;-67
2023/05/27 11:49:19;;;;;;;2.80;0.93;;;24.80;45.40;;;;;;5033169;28;20043;-67
2023/05/27 11:51:47;;;;;;;3.13;1.20;;;24.80;45.10;;;;;;5019181;28;20033;-67
2023/05/27 11:54:22;;;;;;;2.33;0.77;;;24.90;44.50;;;;;;5028899;28;20249;-67
2023/05/27 11:56:48;;;;;;;2.78;1.10;;;25.10;44.30;;;;;;5023321;28;20018;-67
2023/05/27 11:59:15;;;;;;;4.10;1.15;;;25.20;44.00;;;;;;5021426;28;20503;-67
2023/05/27 12:01:41;;;;;;;2.67;1.00;;;25.30;44.20;;;;;;5033319;28;20504;-65
2023/05/27 12:04:07;;;;;;;1.27;1.13;;;25.40;44.10;;;;;;5033230;28;20159;-65
2023/05/27 12:06:33;;;;;;;5.07;1.33;;;25.50;43.70;;;;;;5027926;28;20025;-66
2023/05/27 12:08:59;;;;;;;3.55;1.17;;;25.60;43.20;;;;;;5028821;28;20044;-66
2023/05/27 12:11:26;;;;;;;2.38;1.17;;;25.70;43.20;;;;;;5029218;28;20037;-67
2023/05/27 12:13:53;;;;;;;1.50;0.77;;;25.80;42.90;;;;;;5028890;28;20116;-67
2023/05/27 12:16:19;;;;;;;1.55;0.93;;;25.90;42.80;;;;;;5029264;28;20025;-65
2023/05/27 12:18:45;;;;;;;2.60;1.10;;;25.90;42.60;;;;;;5031382;28;20032;-66
2023/05/27 12:21:11;;;;;;;2.55;1.33;;;25.90;42.20;;;;;;5031514;28;20037;-68
2023/05/27 12:23:37;;;;;;;1.95;1.20;;;26.00;42.00;;;;;;5025178;28;20044;-67
2023/05/27 12:26:03;;;;;;;1.27;1.00;;;26.00;42.10;;;;;;5044603;28;20025;-67
2023/05/27 12:28:28;;;;;;;2.75;1.27;;;26.00;41.80;;;;;;5036296;28;20036;-65
2023/05/27 12:30:54;;;;;;;3.40;1.45;;;26.10;41.80;;;;;;5029305;28;20037;-65
2023/05/27 12:33:20;;;;;;;2.20;1.10;;;26.20;41.70;;;;;;5035330;28;20101;-65
2023/05/27 12:35:46;;;;;;;1.50;0.70;;;26.20;41.60;;;;;;5030358;28;20511;-65
2023/05/27 12:38:12;;;;;;;2.88;1.30;;;26.30;41.40;;;;;;5037737;28;20025;-65
2023/05/27 12:40:37;;;;;;;5.38;1.63;;;26.30;41.20;;;;;;5043484;28;20496;-65
2023/05/27 12:43:03;;;;;;;1.92;1.27;;;26.30;40.60;;;;;;5036546;28;20400;-68
2023/05/27 12:45:30;;;;;;;1.90;1.15;;;26.40;41.10;;;;;;5028700;28;20069;-67
2023/05/27 12:48:01;;;;;;;1.92;1.13;;;26.50;41.30;;;;;;5030591;28;20033;-68